Time;durP1;ratioP1;P1;durP2;ratioP2;P2;SDS_P1;SDS_P2;PMS_P1;PMS_P2;Temp;Humidity;BMP_temperature;BMP_pressure;BME280_temperature;BME280_humidity;BME280_pressure;Samples;Min_cycle;Max_cycle;Signal;HPM_P1;HPM_P2
2021/01/22 11:20:52;;;;;;;79.22;55.00;;;;;;;;;;5131634;27;20315;-37
2021/01/22 11:23:19;;;;;;;66.25;51.08;;;;;;;;;;5111414;28;20374;-17
2021/01/22 12:13:18;;;;;;;31.10;17.98;;;;;;;;;;5071037;27;20391;-44
2021/01/22 12:24:09;;;;;;;17.23;7.95;;;;;;;;;;5147856;27;20395;-69
2021/01/22 12:26:36;;;;;;;19.23;6.43;;;;;;;;;;5133196;27;20661;-62
2021/01/22 12:29:04;;;;;;;11.05;5.35;;;;;;;;;;5135876;27;20019;-61
2021/01/22 12:31:31;;;;;;;14.40;6.72;;;;;;;;;;5119041;27;20023;-62
2021/01/22 12:33:57;;;;;;;10.35;6.20;;;;;;;;;;5129519;28;20080;-61
2021/01/22 12:36:24;;;;;;;13.32;7.25;;;;;;;;;;5128962;28;20031;-62
2021/01/22 12:38:50;;;;;;;13.27;6.80;;;;;;;;;;5128335;28;20043;-63
2021/01/22 12:41:16;;;;;;;23.63;10.32;;;;;;;;;;5127925;28;20064;-63
2021/01/22 12:43:42;;;;;;;15.23;8.05;;;;;;;;;;5109220;28;20475;-62
2021/01/22 12:46:09;;;;;;;16.13;8.38;;;;;;;;;;5127234;28;20062;-62
2021/01/22 12:48:35;;;;;;;18.38;8.23;;;;;;;;;;5110735;28;20028;-62
2021/01/22 12:51:01;;;;;;;20.35;11.35;;;;;;;;;;5128522;28;20103;-61
2021/01/22 12:53:28;;;;;;;12.30;6.40;;;;;;;;;;5126990;28;20032;-61
2021/01/22 12:55:54;;;;;;;13.88;5.82;;;;;;;;;;5127506;28;20053;-61
2021/01/22 12:58:20;;;;;;;12.65;5.90;;;;;;;;;;5125184;28;20390;-62
2021/01/22 13:00:46;;;;;;;13.00;6.60;;;;;;;;;;5128470;28;20019;-62
2021/01/22 13:03:13;;;;;;;12.73;6.85;;;;;;;;;;5128481;28;20589;-62
2021/01/22 13:05:39;;;;;;;13.38;6.72;;;;;;;;;;5128620;28;20080;-62
2021/01/22 13:08:05;;;;;;;18.65;9.38;;;;;;;;;;5128720;28;20030;-62
2021/01/22 13:10:31;;;;;;;20.52;10.02;;;;;;;;;;5129375;28;20024;-61
2021/01/22 13:12:58;;;;;;;19.67;10.23;;;;;;;;;;5111145;28;20019;-62
2021/01/22 13:15:24;;;;;;;19.48;9.30;;;;;;;;;;5128996;28;20877;-62
2021/01/22 13:17:50;;;;;;;16.38;9.00;;;;;;;;;;5129636;28;20080;-62
2021/01/22 13:20:16;;;;;;;16.52;9.02;;;;;;;;;;5129550;28;20027;-62
2021/01/22 13:22:43;;;;;;;11.63;5.82;;;;;;;;;;5127953;28;20550;-61
2021/01/22 13:25:09;;;;;;;16.98;9.35;;;;;;;;;;5109606;28;20023;-62
2021/01/22 13:27:35;;;;;;;15.27;7.95;;;;;;;;;;5128376;28;20051;-62
2021/01/22 13:30:01;;;;;;;23.00;13.13;;;;;;;;;;5110154;28;20023;-61
2021/01/22 13:32:31;;;;;;;13.05;7.85;;;;;;;;;;5128947;28;20023;-61
2021/01/22 13:34:57;;;;;;;26.45;16.13;;;;;;;;;;5099205;28;20429;-61
2021/01/22 13:37:23;;;;;;;20.33;10.68;;;;;;;;;;5115157;28;20051;-62
2021/01/22 13:42:53;;;;;;;16.25;11.10;;;;;;;;;;5114470;28;20444;-62
2021/01/22 13:45:20;;;;;;;13.70;7.32;;;;;;;;;;5114931;28;20020;-64
2021/01/22 13:47:47;;;;;;;13.38;6.90;;;;;;;;;;5114881;28;20055;-62
2021/01/22 13:50:13;;;;;;;10.95;6.07;;;;;;;;;;5114775;28;20015;-62
2021/01/22 13:52:39;;;;;;;15.88;8.20;;;;;;;;;;5114756;28;20043;-63
2021/01/22 13:55:06;;;;;;;16.10;9.32;;;;;;;;;;5114202;28;20034;-61
2021/01/22 13:57:32;;;;;;;26.98;16.33;;;;;;;;;;5114634;28;20535;-62
2021/01/22 13:59:58;;;;;;;29.00;14.05;;;;;;;;;;5096872;28;20058;-62
2021/01/22 14:02:24;;;;;;;20.60;12.10;;;;;;;;;;5114624;28;20176;-62
2021/01/22 14:04:52;;;;;;;17.65;10.20;;;;;;;;;;5114351;28;20088;-61
2021/01/22 14:07:18;;;;;;;38.72;19.40;;;;;;;;;;5114324;28;20042;-62
2021/01/22 14:09:44;;;;;;;35.92;20.25;;;;;;;;;;5114210;28;20076;-62
2021/01/22 14:12:11;;;;;;;50.15;27.60;;;;;;;;;;5096571;28;20050;-62
2021/01/22 14:14:37;;;;;;;42.85;21.13;;;;;;;;;;5114518;28;20023;-62
2021/01/22 14:17:03;;;;;;;26.67;15.27;;;;;;;;;;5114172;28;20036;-64
2021/01/22 14:19:29;;;;;;;23.13;13.00;;;;;;;;;;5114472;28;20055;-61
2021/01/22 14:21:55;;;;;;;16.30;8.48;;;;;;;;;;5113829;28;20028;-63
2021/01/22 14:24:22;;;;;;;21.02;10.07;;;;;;;;;;5114178;28;20019;-63
2021/01/22 14:26:48;;;;;;;27.48;17.83;;;;;;;;;;5114056;28;20016;-63
2021/01/22 14:29:14;;;;;;;31.05;24.15;;;;;;;;;;5114505;28;20111;-62
2021/01/22 14:31:41;;;;;;;21.27;13.20;;;;;;;;;;5095722;28;20447;-62
2021/01/22 14:34:07;;;;;;;25.25;12.57;;;;;;;;;;5114268;28;20035;-62
2021/01/22 14:36:33;;;;;;;28.90;15.63;;;;;;;;;;5114479;28;20028;-62
2021/01/22 14:38:59;;;;;;;31.02;19.08;;;;;;;;;;5095686;28;20107;-61
2021/01/22 14:41:26;;;;;;;42.88;22.52;;;;;;;;;;5114104;28;20518;-62
2021/01/22 14:43:52;;;;;;;46.88;26.05;;;;;;;;;;5114082;28;20043;-62
2021/01/22 14:46:19;;;;;;;50.83;29.55;;;;;;;;;;5112617;28;20091;-62
2021/01/22 14:48:46;;;;;;;35.63;18.65;;;;;;;;;;5113278;28;20023;-61
2021/01/22 14:51:12;;;;;;;47.22;23.80;;;;;;;;;;5113758;28;20020;-61
2021/01/22 14:53:38;;;;;;;49.33;27.70;;;;;;;;;;5112718;28;20027;-60
2021/01/22 14:56:05;;;;;;;64.07;37.03;;;;;;;;;;5113997;28;20028;-61
2021/01/22 14:58:31;;;;;;;60.55;37.15;;;;;;;;;;5113199;28;20035;-61
2021/01/22 15:00:57;;;;;;;31.20;20.25;;;;;;;;;;5112469;28;20019;-61
2021/01/22 15:03:23;;;;;;;35.10;22.40;;;;;;;;;;5094846;28;20038;-62
2021/01/22 15:05:51;;;;;;;27.75;18.75;;;;;;;;;;5112484;28;20023;-61
2021/01/22 15:08:17;;;;;;;41.53;25.85;;;;;;;;;;5112515;28;20111;-62
2021/01/22 15:10:43;;;;;;;29.15;19.90;;;;;;;;;;5094408;28;20216;-63
2021/01/22 15:13:10;;;;;;;20.75;13.50;;;;;;;;;;5111872;28;20031;-63
2021/01/22 15:15:36;;;;;;;22.80;14.45;;;;;;;;;;5113711;28;20027;-63
2021/01/22 15:18:02;;;;;;;43.42;19.60;;;;;;;;;;5114011;28;20437;-64
2021/01/22 15:20:28;;;;;;;52.03;27.02;;;;;;;;;;5094398;28;20073;-63
2021/01/22 15:22:55;;;;;;;49.20;23.25;;;;;;;;;;5113306;28;20487;-63
2021/01/22 15:25:21;;;;;;;59.47;32.30;;;;;;;;;;5095143;28;20023;-61
2021/01/22 15:33:55;;;;;;;50.20;28.45;;;;;;;;;;5113658;28;20508;-62
2021/01/22 15:36:21;;;;;;;56.05;32.60;;;;;;;;;;5112153;28;20063;-62
2021/01/22 15:38:47;;;;;;;49.45;26.80;;;;;;;;;;5113255;28;20020;-62
2021/01/22 15:41:13;;;;;;;70.47;38.92;;;;;;;;;;5112804;28;20020;-64
2021/01/22 15:43:39;;;;;;;64.45;35.60;;;;;;;;;;5094788;28;20031;-63
2021/01/22 15:46:06;;;;;;;60.30;31.65;;;;;;;;;;5112955;28;20094;-61
2021/01/22 15:48:32;;;;;;;50.78;28.25;;;;;;;;;;5112739;28;20024;-61
2021/01/22 15:50:58;;;;;;;37.42;21.27;;;;;;;;;;5094738;28;20495;-62
2021/01/22 15:53:24;;;;;;;27.58;17.45;;;;;;;;;;5112971;28;20032;-61
2021/01/22 15:55:51;;;;;;;33.60;21.60;;;;;;;;;;5112707;28;20540;-63
2021/01/22 15:58:18;;;;;;;34.53;17.58;;;;;;;;;;5112880;28;20020;-63
2021/01/22 16:00:44;;;;;;;35.97;20.45;;;;;;;;;;5112928;28;20098;-62
2021/01/22 16:03:10;;;;;;;63.40;32.30;;;;;;;;;;5112337;28;20548;-64
2021/01/22 16:05:38;;;;;;;78.78;40.90;;;;;;;;;;5112868;28;20027;-62
2021/01/22 16:08:05;;;;;;;53.67;31.75;;;;;;;;;;5112811;28;20031;-63
2021/01/22 16:10:32;;;;;;;50.10;27.63;;;;;;;;;;5112365;28;20022;-62
2021/01/22 16:13:00;;;;;;;53.40;29.42;;;;;;;;;;5094440;28;20020;-62
2021/01/22 16:15:26;;;;;;;39.58;22.88;;;;;;;;;;5112827;28;20026;-63
2021/01/22 16:17:52;;;;;;;28.83;17.17;;;;;;;;;;5112523;28;20020;-62
2021/01/22 16:20:19;;;;;;;17.38;10.52;;;;;;;;;;5094356;28;20034;-63
2021/01/22 16:22:45;;;;;;;21.30;13.15;;;;;;;;;;5112368;28;20047;-62
2021/01/22 16:25:11;;;;;;;30.63;19.20;;;;;;;;;;5112061;28;20027;-63
2021/01/22 16:27:39;;;;;;;51.55;26.08;;;;;;;;;;5112463;28;20030;-62
2021/01/22 16:30:06;;;;;;;41.55;22.90;;;;;;;;;;5094313;28;20102;-63
2021/01/22 16:32:36;;;;;;;42.72;25.13;;;;;;;;;;5093959;28;20024;-62
2021/01/22 16:35:02;;;;;;;60.28;39.72;;;;;;;;;;5094237;28;20134;-62
2021/01/22 16:37:28;;;;;;;31.55;20.40;;;;;;;;;;5094061;28;20383;-63
2021/01/22 16:39:59;;;;;;;21.63;13.95;;;;;;;;;;5094363;28;20387;-62
2021/01/22 16:42:26;;;;;;;49.58;28.05;;;;;;;;;;5112340;28;20020;-62
2021/01/22 16:44:52;;;;;;;69.78;37.05;;;;;;;;;;5112006;28;20035;-62
2021/01/22 16:47:19;;;;;;;60.47;35.50;;;;;;;;;;5112223;28;20012;-62
2021/01/22 16:49:45;;;;;;;66.65;38.25;;;;;;;;;;5112264;28;20016;-63
2021/01/22 16:52:12;;;;;;;48.53;29.48;;;;;;;;;;5093568;28;20020;-63
2021/01/22 16:54:38;;;;;;;54.50;33.20;;;;;;;;;;5094037;28;20023;-62
2021/01/22 16:57:05;;;;;;;57.50;37.13;;;;;;;;;;5112378;28;20395;-62
2021/01/22 16:59:31;;;;;;;39.75;24.08;;;;;;;;;;5111999;28;20559;-63
2021/01/22 17:01:57;;;;;;;59.35;37.75;;;;;;;;;;5112129;28;20079;-63
2021/01/22 17:04:23;;;;;;;57.90;36.33;;;;;;;;;;5112182;28;20732;-62
2021/01/22 17:06:50;;;;;;;49.03;34.95;;;;;;;;;;5093649;28;20031;-62
2021/01/22 17:09:16;;;;;;;66.40;40.47;;;;;;;;;;5113284;28;20689;-62
2021/01/22 17:11:42;;;;;;;64.70;37.45;;;;;;;;;;5116302;28;20028;-61
2021/01/22 17:14:09;;;;;;;59.70;34.22;;;;;;;;;;5097425;28;20020;-61
2021/01/22 17:16:35;;;;;;;61.97;34.83;;;;;;;;;;5097779;28;20032;-63
2021/01/22 17:19:01;;;;;;;61.63;37.90;;;;;;;;;;5097677;28;20020;-63
2021/01/22 17:21:27;;;;;;;29.17;17.52;;;;;;;;;;5115591;28;20020;-62
2021/01/22 17:23:53;;;;;;;43.40;30.35;;;;;;;;;;5115604;28;20047;-60
2021/01/22 17:26:20;;;;;;;29.83;17.05;;;;;;;;;;5097355;28;20026;-60
2021/01/22 17:28:46;;;;;;;42.42;26.23;;;;;;;;;;5097023;28;20080;-63
2021/01/22 17:31:12;;;;;;;35.55;20.98;;;;;;;;;;5115655;28;20027;-63
2021/01/22 17:33:38;;;;;;;30.73;17.85;;;;;;;;;;5115286;28;20026;-63
2021/01/22 17:36:05;;;;;;;21.88;14.68;;;;;;;;;;5115608;28;20483;-62
2021/01/22 17:38:31;;;;;;;32.92;19.02;;;;;;;;;;5115660;28;20031;-62
2021/01/22 17:40:58;;;;;;;30.90;19.48;;;;;;;;;;5115098;28;20630;-62
2021/01/22 17:43:24;;;;;;;35.42;19.42;;;;;;;;;;5114166;28;20050;-62
2021/01/22 17:45:51;;;;;;;26.05;13.95;;;;;;;;;;5095038;28;20023;-61
2021/01/22 17:48:17;;;;;;;22.02;14.02;;;;;;;;;;5113486;28;20102;-62
2021/01/22 17:50:43;;;;;;;23.38;13.18;;;;;;;;;;5114626;28;20024;-63
2021/01/22 17:53:10;;;;;;;25.10;13.02;;;;;;;;;;5115050;28;20015;-62
2021/01/22 17:55:36;;;;;;;91.00;54.85;;;;;;;;;;5096268;28;20379;-62
2021/01/22 17:58:02;;;;;;;50.58;30.83;;;;;;;;;;5115123;28;20024;-62
2021/01/22 18:00:28;;;;;;;41.08;23.15;;;;;;;;;;5115105;28;20467;-62
2021/01/22 18:02:55;;;;;;;41.72;26.38;;;;;;;;;;5114602;28;20483;-62
2021/01/22 18:05:21;;;;;;;59.28;36.83;;;;;;;;;;5115033;28;20027;-62
2021/01/22 18:07:48;;;;;;;37.78;23.63;;;;;;;;;;5114859;28;20046;-62
2021/01/22 18:10:15;;;;;;;32.92;19.58;;;;;;;;;;5114450;28;20522;-62
2021/01/22 18:12:41;;;;;;;41.05;24.85;;;;;;;;;;5096541;28;20531;-62
2021/01/22 18:15:08;;;;;;;40.85;26.10;;;;;;;;;;5096651;28;20092;-61
2021/01/22 18:17:34;;;;;;;38.40;23.42;;;;;;;;;;5114384;28;20106;-62
2021/01/22 18:20:02;;;;;;;36.60;21.83;;;;;;;;;;5114461;28;20059;-62
2021/01/22 18:22:29;;;;;;;39.72;22.08;;;;;;;;;;5114272;28;20035;-62
2021/01/22 18:24:55;;;;;;;45.97;28.02;;;;;;;;;;5114173;28;20016;-62
2021/01/22 18:27:21;;;;;;;40.30;20.90;;;;;;;;;;5114536;28;20031;-62
2021/01/22 18:29:48;;;;;;;47.60;28.00;;;;;;;;;;5114324;28;20020;-62
2021/01/22 18:32:14;;;;;;;45.17;25.20;;;;;;;;;;5095643;28;20050;-62
2021/01/22 18:34:40;;;;;;;59.75;35.38;;;;;;;;;;5096105;28;20027;-62
2021/01/22 18:37:07;;;;;;;70.03;47.08;;;;;;;;;;5095848;28;20022;-62
2021/01/22 18:39:33;;;;;;;53.10;34.78;;;;;;;;;;5114407;28;20019;-62
2021/01/22 18:41:59;;;;;;;48.28;25.05;;;;;;;;;;5095857;28;20027;-62
2021/01/22 18:44:25;;;;;;;48.72;28.25;;;;;;;;;;5113904;28;20024;-62
2021/01/22 18:46:51;;;;;;;71.97;42.47;;;;;;;;;;5114244;28;20097;-62
2021/01/22 18:49:18;;;;;;;84.95;48.72;;;;;;;;;;5095796;28;20024;-62
2021/01/22 18:51:44;;;;;;;88.78;52.20;;;;;;;;;;5095222;28;20031;-62
2021/01/22 18:54:10;;;;;;;73.78;41.40;;;;;;;;;;5114115;28;20031;-62
2021/01/22 18:56:38;;;;;;;57.33;32.38;;;;;;;;;;5114202;28;20019;-62
2021/01/22 18:59:04;;;;;;;53.53;33.80;;;;;;;;;;5113571;28;20093;-62
2021/01/22 19:01:30;;;;;;;38.05;23.67;;;;;;;;;;5095538;28;20046;-62
2021/01/22 19:03:56;;;;;;;51.45;29.50;;;;;;;;;;5113875;28;20039;-62
2021/01/22 19:06:22;;;;;;;39.97;23.00;;;;;;;;;;5113440;28;20031;-62
2021/01/22 19:08:49;;;;;;;29.77;17.52;;;;;;;;;;5113866;28;20110;-62
2021/01/22 19:11:15;;;;;;;31.33;16.77;;;;;;;;;;5113658;28;20386;-62
2021/01/22 19:13:41;;;;;;;25.90;13.43;;;;;;;;;;5113457;28;20049;-62
2021/01/22 19:16:08;;;;;;;28.13;15.48;;;;;;;;;;5113910;28;20023;-62
2021/01/22 19:18:34;;;;;;;24.48;15.68;;;;;;;;;;5113775;28;20022;-62
2021/01/22 19:21:00;;;;;;;21.20;12.88;;;;;;;;;;5094810;28;20076;-62
2021/01/22 19:23:26;;;;;;;32.17;19.38;;;;;;;;;;5112877;28;20059;-61
2021/01/22 19:25:53;;;;;;;116.65;47.85;;;;;;;;;;5113491;28;20041;-61
2021/01/22 19:28:20;;;;;;;81.32;33.60;;;;;;;;;;5112919;28;20498;-61
2021/01/22 19:30:46;;;;;;;48.90;25.67;;;;;;;;;;5113403;28;20510;-60
2021/01/22 19:33:13;;;;;;;35.80;19.73;;;;;;;;;;5112440;28;20028;-61
2021/01/22 19:35:39;;;;;;;44.47;25.30;;;;;;;;;;5113387;28;20501;-60
2021/01/22 19:38:05;;;;;;;34.45;19.45;;;;;;;;;;5113289;28;20466;-62
2021/01/22 19:40:31;;;;;;;64.63;32.80;;;;;;;;;;5112855;28;20024;-61
2021/01/22 19:42:58;;;;;;;33.47;19.77;;;;;;;;;;5094750;28;20394;-60
2021/01/22 19:45:24;;;;;;;37.35;20.15;;;;;;;;;;5113020;28;20107;-60
2021/01/22 19:47:50;;;;;;;38.15;20.63;;;;;;;;;;5112656;28;20020;-62
2021/01/22 19:50:16;;;;;;;40.40;19.33;;;;;;;;;;5112964;28;20024;-62
2021/01/22 19:52:42;;;;;;;29.27;18.40;;;;;;;;;;5112962;28;20069;-62
2021/01/22 19:55:09;;;;;;;25.85;16.38;;;;;;;;;;5112701;28;20026;-62
2021/01/22 19:57:35;;;;;;;30.02;16.67;;;;;;;;;;5113123;28;20020;-61
2021/01/22 20:00:02;;;;;;;19.60;12.30;;;;;;;;;;5112824;28;20034;-62
2021/01/22 20:02:28;;;;;;;16.23;10.05;;;;;;;;;;5112429;28;20023;-62
2021/01/22 20:04:56;;;;;;;14.75;9.38;;;;;;;;;;5112837;28;20116;-62
2021/01/22 20:07:22;;;;;;;18.80;10.45;;;;;;;;;;5112960;28;20020;-63
2021/01/22 20:09:48;;;;;;;19.13;9.65;;;;;;;;;;5094242;28;20105;-62
2021/01/22 20:12:15;;;;;;;17.33;10.52;;;;;;;;;;5112704;28;20050;-63
2021/01/22 20:14:42;;;;;;;16.63;9.20;;;;;;;;;;5112875;28;20016;-63
2021/01/22 20:17:09;;;;;;;19.13;9.70;;;;;;;;;;5112608;28;20024;-62
2021/01/22 20:19:35;;;;;;;26.50;14.75;;;;;;;;;;5094657;28;20058;-62
2021/01/22 20:22:01;;;;;;;21.45;11.05;;;;;;;;;;5112531;28;20084;-63
2021/01/22 20:24:28;;;;;;;14.15;9.65;;;;;;;;;;5094067;28;20378;-62
2021/01/22 20:26:54;;;;;;;17.48;10.30;;;;;;;;;;5112615;28;20023;-62
2021/01/22 20:29:20;;;;;;;16.25;9.65;;;;;;;;;;5111830;28;20028;-63
2021/01/22 20:31:46;;;;;;;20.02;10.60;;;;;;;;;;5112357;28;20092;-63
2021/01/22 20:34:12;;;;;;;17.67;10.15;;;;;;;;;;5112624;28;20152;-63
2021/01/22 20:36:39;;;;;;;17.35;10.65;;;;;;;;;;5112324;28;20035;-63
2021/01/22 20:39:05;;;;;;;17.67;9.80;;;;;;;;;;5112853;28;20494;-63
2021/01/22 20:41:31;;;;;;;16.95;10.60;;;;;;;;;;5112601;28;20030;-63
2021/01/22 20:43:57;;;;;;;15.93;9.38;;;;;;;;;;5112204;28;20028;-62
2021/01/22 20:46:23;;;;;;;17.90;9.43;;;;;;;;;;5097641;28;20355;-62
2021/01/22 20:48:50;;;;;;;15.77;8.65;;;;;;;;;;5116656;28;20023;-62
2021/01/22 20:51:16;;;;;;;20.63;11.43;;;;;;;;;;5097839;28;20023;-62
2021/01/22 20:53:42;;;;;;;28.95;14.77;;;;;;;;;;5098167;28;20051;-63
2021/01/22 20:56:08;;;;;;;27.08;12.02;;;;;;;;;;5116486;28;20027;-63
2021/01/22 20:58:34;;;;;;;23.13;10.77;;;;;;;;;;5097993;28;20027;-63
2021/01/22 21:01:00;;;;;;;23.45;11.52;;;;;;;;;;5116587;28;20098;-63
2021/01/22 21:03:27;;;;;;;16.08;9.68;;;;;;;;;;5097890;28;20031;-63
2021/01/22 21:05:53;;;;;;;15.85;10.30;;;;;;;;;;5115985;28;20088;-63
2021/01/22 21:08:19;;;;;;;18.67;10.73;;;;;;;;;;5116173;28;20020;-63
2021/01/22 21:10:45;;;;;;;18.02;10.32;;;;;;;;;;5097863;28;20111;-62
2021/01/22 21:13:11;;;;;;;16.67;9.38;;;;;;;;;;5115770;28;20019;-63
2021/01/22 21:15:38;;;;;;;17.67;10.57;;;;;;;;;;5116154;28;20023;-62
2021/01/22 21:18:04;;;;;;;19.80;11.68;;;;;;;;;;5116252;28;20100;-62
2021/01/22 21:20:30;;;;;;;24.05;12.27;;;;;;;;;;5115610;28;20020;-62
2021/01/22 21:22:56;;;;;;;24.17;13.43;;;;;;;;;;5115731;28;20085;-62
2021/01/22 21:25:22;;;;;;;19.27;11.00;;;;;;;;;;5097573;28;20020;-63
2021/01/22 21:27:49;;;;;;;20.35;11.60;;;;;;;;;;5115478;28;20387;-63
2021/01/22 21:30:16;;;;;;;18.25;10.55;;;;;;;;;;5115848;28;20421;-63
2021/01/22 21:32:43;;;;;;;23.02;11.95;;;;;;;;;;5115348;28;20483;-63
2021/01/22 21:35:09;;;;;;;24.73;13.15;;;;;;;;;;5115754;28;20102;-62
2021/01/22 21:37:36;;;;;;;19.50;10.93;;;;;;;;;;5115923;28;20020;-63
2021/01/22 21:40:04;;;;;;;19.58;9.57;;;;;;;;;;5115403;28;20088;-63
2021/01/22 21:42:30;;;;;;;20.75;9.88;;;;;;;;;;5115486;28;20117;-63
2021/01/22 21:44:57;;;;;;;19.48;10.38;;;;;;;;;;5115468;28;20077;-63
2021/01/22 21:47:23;;;;;;;15.80;9.13;;;;;;;;;;5115025;28;20019;-62
2021/01/22 21:49:49;;;;;;;18.05;8.45;;;;;;;;;;5097111;28;20478;-63
2021/01/22 21:52:16;;;;;;;25.35;11.52;;;;;;;;;;5115410;28;20468;-63
2021/01/22 21:54:43;;;;;;;18.77;10.77;;;;;;;;;;5114587;28;20016;-63
2021/01/22 21:57:09;;;;;;;19.00;10.57;;;;;;;;;;5115551;28;20047;-63
2021/01/22 21:59:35;;;;;;;21.27;12.70;;;;;;;;;;5097169;28;20024;-63
2021/01/22 22:02:01;;;;;;;21.15;12.00;;;;;;;;;;5114811;28;20019;-63
2021/01/22 22:04:28;;;;;;;18.40;10.68;;;;;;;;;;5115213;28;20023;-63
2021/01/22 22:06:54;;;;;;;25.13;11.68;;;;;;;;;;5115164;28;20031;-62
2021/01/22 22:09:21;;;;;;;31.80;17.65;;;;;;;;;;5114678;28;20027;-62
2021/01/22 22:11:47;;;;;;;28.13;16.58;;;;;;;;;;5115028;28;20023;-62
2021/01/22 22:14:13;;;;;;;24.52;13.38;;;;;;;;;;5114993;28;20439;-62
2021/01/22 22:16:39;;;;;;;20.27;11.93;;;;;;;;;;5114542;28;20499;-62
2021/01/22 22:19:06;;;;;;;21.63;12.43;;;;;;;;;;5115053;28;20379;-62
2021/01/22 22:21:33;;;;;;;28.05;16.08;;;;;;;;;;5114842;28;20518;-62
2021/01/22 22:24:00;;;;;;;33.38;19.13;;;;;;;;;;5114139;28;20089;-62
2021/01/22 22:26:26;;;;;;;21.73;11.45;;;;;;;;;;5114678;28;20028;-62
2021/01/22 22:28:52;;;;;;;18.30;10.50;;;;;;;;;;5114642;28;20032;-62
2021/01/22 22:31:18;;;;;;;24.55;11.85;;;;;;;;;;5095891;28;20015;-62
2021/01/22 22:33:44;;;;;;;24.85;14.85;;;;;;;;;;5114487;28;20036;-62
2021/01/22 22:36:10;;;;;;;26.02;14.90;;;;;;;;;;5095666;28;20418;-62
2021/01/22 22:38:37;;;;;;;17.35;10.35;;;;;;;;;;5114669;28;20026;-62
2021/01/22 22:41:04;;;;;;;29.55;14.80;;;;;;;;;;5096275;28;20164;-63
2021/01/22 22:43:30;;;;;;;28.15;15.02;;;;;;;;;;5113949;28;20084;-62
2021/01/22 22:45:56;;;;;;;26.25;13.75;;;;;;;;;;5114301;28;20024;-62
2021/01/22 22:48:22;;;;;;;21.20;10.70;;;;;;;;;;5095915;28;20024;-62
2021/01/22 22:50:48;;;;;;;17.75;9.77;;;;;;;;;;5113963;28;20095;-62
2021/01/22 22:53:14;;;;;;;16.33;9.23;;;;;;;;;;5114259;28;20034;-63
2021/01/22 22:55:41;;;;;;;14.93;9.05;;;;;;;;;;5114154;28;20020;-62
2021/01/22 22:58:07;;;;;;;15.98;9.73;;;;;;;;;;5113776;28;20028;-62
2021/01/22 23:00:33;;;;;;;15.73;9.48;;;;;;;;;;5114182;28;20479;-62
2021/01/22 23:02:59;;;;;;;18.02;9.07;;;;;;;;;;5113786;28;20028;-62
2021/01/22 23:05:25;;;;;;;18.30;8.95;;;;;;;;;;5113498;28;20019;-62
2021/01/22 23:07:52;;;;;;;16.33;9.35;;;;;;;;;;5112921;28;20028;-62
2021/01/22 23:10:18;;;;;;;20.15;11.00;;;;;;;;;;5113843;28;20030;-62
2021/01/22 23:12:44;;;;;;;20.23;9.00;;;;;;;;;;5113245;28;20024;-62
2021/01/22 23:15:12;;;;;;;18.42;9.48;;;;;;;;;;5113649;28;20024;-62
2021/01/22 23:17:38;;;;;;;17.45;9.65;;;;;;;;;;5113701;28;20016;-63
2021/01/22 23:20:07;;;;;;;16.52;8.77;;;;;;;;;;5113513;28;20487;-62
2021/01/22 23:22:33;;;;;;;17.75;9.40;;;;;;;;;;5113415;28;20491;-62
2021/01/22 23:25:00;;;;;;;13.57;8.07;;;;;;;;;;5113554;28;20023;-62
2021/01/22 23:27:26;;;;;;;14.07;7.72;;;;;;;;;;5113061;28;20409;-62
2021/01/22 23:29:52;;;;;;;12.82;7.60;;;;;;;;;;5113421;28;20038;-62
2021/01/22 23:32:18;;;;;;;15.10;8.15;;;;;;;;;;5112999;28;20019;-62
2021/01/22 23:34:44;;;;;;;14.45;7.82;;;;;;;;;;5113606;28;20024;-62
2021/01/22 23:37:10;;;;;;;14.27;8.68;;;;;;;;;;5113252;28;20364;-62
2021/01/22 23:39:37;;;;;;;17.08;7.78;;;;;;;;;;5112962;28;20020;-62
2021/01/22 23:42:03;;;;;;;15.40;8.40;;;;;;;;;;5113205;28;20034;-62
2021/01/22 23:44:29;;;;;;;15.95;8.88;;;;;;;;;;5113137;28;20103;-62
2021/01/22 23:46:55;;;;;;;14.77;7.65;;;;;;;;;;5112605;28;20024;-62
2021/01/22 23:49:21;;;;;;;14.98;7.63;;;;;;;;;;5094755;28;20107;-62
2021/01/22 23:51:47;;;;;;;20.40;8.43;;;;;;;;;;5112911;28;20024;-62
2021/01/22 23:54:14;;;;;;;13.70;6.72;;;;;;;;;;5112626;28;20209;-62
2021/01/22 23:56:40;;;;;;;14.07;6.93;;;;;;;;;;5112931;28;20030;-62
2021/01/22 23:59:06;;;;;;;14.32;7.45;;;;;;;;;;5094922;28;20100;-62
